Main page
METAR-TAF:

METAR-TAF

Airports :

Basra International Airport

Basra, Iraq

latitude: 30-32-56N, longitude: 47-39-45E, elevation: 1 m

Current weather observation

The report was made 55 minutes ago, at 08:00 UTC
Wind 10 kt from the South/Southwest
Temperature 41°C
Humidity 10%
Pressure 1009 hPa
Visibility 10 km or more
no clouds below 1500 m and no cumulonimbus

METAR: ORMM 240800Z 20010KT CAVOK 41/03 Q1009 NOSIG

Time: 11:55 (08:55 UTC)

Forecast

The report was made 4 hours and 55 minutes ago, at 04:00 UTC
Forecast valid from 24 at 06 UTC to 25 at 06 UTC
Wind 6 kt from the West
Visibility 10 km or more
no clouds below 1500 m and no cumulonimbus
Becoming
from 24 at 13 UTC to 24 at 15 UTC
Wind 10 kt from the Northwest

TAF: ORMM 240400Z 2406/2506 26006KT CAVOK BECMG 2413/2415 31010KT

Weather observations and forecasts of more than 4000 airports (METAR and TAF reports).

The available stations are represented by yellow and red dots on the map.

Hover mouse over dot to see the name of the station.

Then click to see weather observations and forecasts.

To change the map : click on the green buttons with a black cross to zoom in, on the green button with a dash to zoom out, or on the green arrows for adjacent maps.


METAR-TAF: